createdAt,value
2018-08-16T00:02:06.258Z,16.87
2018-08-16T00:04:38.481Z,16.80
2018-08-16T00:07:06.739Z,23.47
2018-08-16T00:09:35.156Z,18.32
2018-08-16T00:12:03.376Z,19.50
2018-08-16T00:14:35.200Z,22.00
2018-08-16T00:17:03.712Z,18.43
2018-08-16T00:19:31.891Z,17.23
2018-08-16T00:22:00.098Z,16.67
2018-08-16T00:24:28.732Z,17.23
2018-08-16T00:26:57.077Z,20.47
2018-08-16T00:29:25.333Z,19.10
2018-08-16T00:31:53.593Z,19.50
2018-08-16T00:34:21.844Z,16.87
2018-08-16T00:36:50.689Z,19.00
2018-08-16T00:39:18.893Z,20.17
2018-08-16T00:41:47.580Z,19.12
2018-08-16T00:44:15.808Z,18.13
2018-08-16T00:46:47.057Z,19.92
2018-08-16T00:49:15.313Z,23.07
2018-08-16T00:51:43.555Z,23.17
2018-08-16T00:54:11.767Z,17.50
2018-08-16T00:56:40.016Z,23.62
2018-08-16T00:59:08.272Z,17.73
2018-08-16T01:01:41.686Z,20.63
2018-08-16T01:04:09.875Z,16.67
2018-08-16T01:06:38.104Z,17.33
2018-08-16T01:09:08.126Z,18.05
2018-08-16T01:11:36.308Z,22.25
2018-08-16T01:14:05.418Z,18.63
2018-08-16T01:16:36.575Z,18.07
2018-08-16T01:19:04.779Z,19.53
2018-08-16T01:21:33.131Z,17.20
2018-08-16T01:24:01.354Z,18.50
2018-08-16T01:26:29.566Z,22.00
2018-08-16T01:28:58.090Z,18.23
2018-08-16T01:31:29.308Z,26.80
2018-08-16T01:33:57.558Z,19.42
2018-08-16T01:36:25.740Z,20.30
2018-08-16T01:38:54.017Z,25.15
2018-08-16T01:41:22.998Z,16.75
2018-08-16T01:43:51.188Z,15.97
2018-08-16T01:46:22.237Z,15.10
2018-08-16T01:48:50.466Z,21.23
2018-08-16T01:51:18.673Z,13.47
2018-08-16T01:53:46.868Z,17.20
2018-08-16T01:56:15.131Z,15.77
2018-08-16T01:58:43.324Z,18.10
2018-08-16T02:01:14.966Z,14.57
2018-08-16T02:03:43.409Z,14.18
2018-08-16T02:06:11.839Z,18.30
2018-08-16T02:08:40.062Z,21.63
2018-08-16T02:11:08.291Z,15.78
2018-08-16T02:13:36.542Z,15.80
2018-08-16T02:16:04.840Z,14.50
2018-08-16T02:18:33.038Z,13.93
2018-08-16T02:21:01.288Z,15.57
2018-08-16T02:23:29.493Z,26.23
2018-08-16T02:25:57.707Z,19.20
2018-08-16T02:28:25.944Z,24.77
2018-08-16T02:30:54.171Z,17.30
2018-08-16T02:33:22.386Z,16.93
2018-08-16T02:35:50.618Z,15.97
2018-08-16T02:38:18.805Z,14.83
2018-08-16T02:40:47.000Z,15.93
2018-08-16T02:43:15.187Z,14.30
2018-08-16T02:45:43.388Z,13.60
2018-08-16T02:48:11.599Z,10.77
2018-08-16T02:50:39.832Z,12.67
2018-08-16T02:53:08.523Z,12.90
2018-08-16T02:55:36.920Z,12.80
2018-08-16T02:58:05.199Z,11.97
2018-08-16T03:00:33.383Z,13.80
2018-08-16T03:03:05.870Z,13.60
2018-08-16T03:05:34.080Z,12.80
2018-08-16T03:08:02.299Z,15.23
2018-08-16T03:10:31.412Z,14.43
2018-08-16T03:12:59.636Z,11.60
2018-08-16T03:15:27.852Z,14.33
2018-08-16T03:17:58.883Z,12.23
2018-08-16T03:20:27.064Z,14.28
2018-08-16T03:22:55.458Z,16.17
2018-08-16T03:25:23.648Z,11.53
2018-08-16T03:27:51.837Z,10.85
2018-08-16T03:30:20.149Z,12.13
2018-08-16T03:32:52.757Z,12.85
2018-08-16T03:35:21.929Z,11.53
2018-08-16T03:37:50.076Z,13.48
2018-08-16T03:40:18.508Z,11.30
2018-08-16T03:42:46.723Z,12.50
2018-08-16T03:45:14.909Z,9.10
2018-08-16T03:47:43.136Z,10.15
2018-08-16T03:50:11.347Z,15.48
2018-08-16T03:52:39.552Z,9.90
2018-08-16T03:55:07.864Z,20.32
2018-08-16T03:57:36.084Z,16.30
2018-08-16T04:00:05.578Z,12.88
2018-08-16T04:02:33.794Z,13.30
2018-08-16T04:05:02.008Z,15.33
2018-08-16T04:07:30.733Z,12.68
2018-08-16T04:09:58.955Z,13.22
2018-08-16T04:12:27.220Z,13.62
2018-08-16T04:14:55.672Z,13.58
2018-08-16T04:17:31.452Z,11.67
2018-08-16T04:19:59.627Z,13.23
2018-08-16T04:22:28.011Z,12.63
2018-08-16T04:24:56.483Z,11.77
2018-08-16T04:27:25.016Z,12.30
2018-08-16T04:29:53.216Z,11.57
2018-08-16T04:32:21.457Z,12.23
2018-08-16T04:34:49.769Z,11.33
2018-08-16T04:37:18.014Z,11.70
2018-08-16T04:39:46.325Z,18.93
2018-08-16T04:42:14.519Z,14.83
2018-08-16T04:44:43.049Z,16.87
2018-08-16T04:47:11.276Z,12.00
2018-08-16T04:49:39.548Z,14.27
2018-08-16T04:52:11.333Z,19.00
2018-08-16T04:54:39.639Z,12.37
2018-08-16T04:57:07.934Z,14.30
2018-08-16T04:59:36.135Z,14.73
2018-08-16T05:02:04.432Z,14.90
2018-08-16T05:04:32.627Z,11.20
2018-08-16T05:07:11.260Z,11.85
2018-08-16T05:09:39.453Z,15.03
2018-08-16T05:12:07.683Z,11.68
2018-08-16T05:14:36.163Z,13.33
2018-08-16T05:17:04.495Z,12.17
2018-08-16T05:19:44.279Z,11.68
2018-08-16T05:22:12.516Z,12.00
2018-08-16T05:24:40.704Z,14.17
2018-08-16T05:27:15.831Z,8.10
2018-08-16T05:29:44.612Z,10.98
2018-08-16T05:32:12.829Z,16.47
2018-08-16T05:34:41.080Z,12.13
2018-08-16T05:37:09.360Z,8.47
2018-08-16T05:39:38.097Z,9.20
2018-08-16T05:42:06.588Z,13.30
2018-08-16T05:44:34.782Z,12.30
2018-08-16T05:47:03.915Z,12.20
2018-08-16T05:49:32.150Z,9.93
2018-08-16T05:52:00.375Z,11.23
2018-08-16T05:54:28.796Z,12.37
2018-08-16T05:56:56.987Z,9.00
2018-08-16T05:59:25.305Z,10.82
2018-08-16T06:01:53.479Z,15.17
2018-08-16T06:04:22.129Z,10.90
2018-08-16T06:06:54.529Z,13.13
2018-08-16T06:09:22.812Z,15.50
2018-08-16T06:11:52.011Z,15.93
2018-08-16T06:14:20.221Z,15.83
2018-08-16T06:16:48.525Z,14.00
2018-08-16T06:19:16.740Z,19.90
2018-08-16T06:21:48.296Z,17.82
2018-08-16T06:24:16.543Z,13.83
2018-08-16T06:26:44.732Z,17.90
2018-08-16T06:29:12.975Z,13.73
2018-08-16T06:31:41.201Z,14.50
2018-08-16T06:34:09.447Z,14.87
2018-08-16T06:36:38.590Z,19.77
2018-08-16T06:39:09.021Z,16.23
2018-08-16T06:41:37.881Z,16.23
2018-08-16T06:44:06.167Z,17.40
2018-08-16T06:46:34.421Z,18.00
2018-08-16T06:49:02.631Z,12.07
2018-08-16T06:51:31.023Z,24.15
2018-08-16T06:53:59.427Z,11.85
2018-08-16T06:56:28.394Z,16.00
2018-08-16T06:58:56.596Z,14.58
2018-08-16T07:01:24.820Z,20.15
2018-08-16T07:03:53.223Z,13.55
2018-08-16T07:06:25.263Z,15.03
2018-08-16T07:08:53.709Z,16.75
2018-08-16T07:11:21.945Z,21.33
2018-08-16T07:13:50.195Z,13.83
2018-08-16T07:16:18.559Z,15.83
2018-08-16T07:18:46.848Z,16.17
2018-08-16T07:21:15.173Z,16.07
2018-08-16T07:23:47.100Z,15.88
2018-08-16T07:26:15.327Z,26.53
2018-08-16T07:28:43.559Z,38.20
2018-08-16T07:31:11.807Z,17.53
2018-08-16T07:33:40.050Z,19.47
2018-08-16T07:36:08.262Z,21.23
2018-08-16T07:38:39.808Z,14.10
2018-08-16T07:41:08.450Z,12.23
2018-08-16T07:43:36.756Z,14.00
2018-08-16T07:46:04.994Z,20.40
2018-08-16T07:48:33.179Z,13.93
2018-08-16T07:51:01.470Z,15.63
2018-08-16T07:53:32.949Z,16.67
2018-08-16T07:56:01.181Z,12.87
2018-08-16T07:58:29.386Z,15.67
2018-08-16T08:00:58.528Z,14.83
2018-08-16T08:03:26.775Z,17.73
2018-08-16T08:05:55.021Z,20.23
2018-08-16T08:08:23.264Z,13.00
2018-08-16T08:10:51.422Z,13.00
2018-08-16T08:13:19.607Z,12.30
2018-08-16T08:15:47.804Z,12.30
2018-08-16T08:18:16.940Z,10.67
2018-08-16T08:20:45.078Z,17.15
2018-08-16T08:23:17.285Z,13.30
2018-08-16T08:25:45.480Z,10.20
2018-08-16T08:28:13.698Z,12.87
2018-08-16T08:30:41.893Z,9.17
2018-08-16T08:33:10.127Z,11.80
2018-08-16T08:35:38.381Z,12.17
2018-08-16T08:38:12.320Z,12.37
2018-08-16T08:40:40.529Z,9.78
2018-08-16T08:43:08.716Z,10.43
2018-08-16T08:45:36.925Z,17.63
2018-08-16T08:48:05.283Z,6.10
2018-08-16T08:50:33.488Z,8.10
2018-08-16T08:53:16.118Z,11.40
2018-08-16T08:55:55.725Z,6.10
2018-08-16T08:58:39.601Z,8.23
2018-08-16T09:01:07.824Z,8.87
2018-08-16T09:03:36.056Z,10.13
2018-08-16T09:06:04.596Z,10.05
2018-08-16T09:08:49.572Z,8.88
2018-08-16T09:11:29.169Z,8.10
2018-08-16T09:14:08.856Z,6.20
2018-08-16T09:16:41.003Z,6.57
2018-08-16T09:19:10.937Z,11.20
2018-08-16T09:21:39.119Z,6.90
2018-08-16T09:24:07.388Z,13.90
2018-08-16T09:26:40.506Z,9.05
2018-08-16T09:29:22.743Z,9.00
2018-08-16T09:34:08.651Z,5.83
2018-08-16T09:36:37.722Z,9.93
2018-08-16T09:39:10.427Z,5.47
2018-08-16T09:41:38.935Z,5.00
2018-08-16T09:44:07.224Z,7.05
2018-08-16T09:46:57.854Z,4.33
2018-08-16T09:49:27.423Z,6.73
2018-08-16T09:51:55.860Z,7.40
2018-08-16T09:54:24.106Z,4.28
2018-08-16T09:56:52.792Z,4.37
2018-08-16T09:59:21.796Z,4.25
2018-08-16T10:01:50.173Z,5.23
2018-08-16T10:04:18.343Z,4.70
2018-08-16T10:06:46.822Z,3.67
2018-08-16T10:09:17.035Z,4.60
2018-08-16T10:11:45.937Z,8.87
2018-08-16T10:14:14.421Z,7.50
2018-08-16T10:16:42.624Z,13.23
2018-08-16T10:19:11.707Z,3.83
2018-08-16T10:21:39.948Z,6.40
2018-08-16T10:24:08.175Z,3.67
2018-08-16T10:26:39.933Z,3.37
2018-08-16T10:29:08.653Z,7.17
2018-08-16T10:31:36.859Z,3.97
2018-08-16T10:34:05.089Z,5.10
2018-08-16T10:36:33.375Z,3.73
2018-08-16T10:39:01.622Z,3.20
2018-08-16T10:41:30.268Z,5.63
2018-08-16T10:43:58.447Z,3.30
2018-08-16T10:46:26.654Z,3.13
2018-08-16T10:48:54.846Z,3.37
2018-08-16T10:51:23.056Z,3.53
2018-08-16T10:53:51.232Z,3.97
2018-08-16T10:56:19.456Z,3.13
2018-08-16T10:58:47.706Z,3.17
2018-08-16T11:01:16.081Z,3.43
2018-08-16T11:03:44.182Z,2.93
2018-08-16T11:06:12.424Z,4.00
2018-08-16T11:08:40.620Z,7.03
2018-08-16T11:11:13.212Z,3.07
2018-08-16T11:13:41.415Z,2.87
2018-08-16T11:16:09.604Z,4.50
2018-08-16T11:18:37.796Z,9.53
2018-08-16T11:21:06.168Z,3.23
2018-08-16T11:23:34.463Z,4.15
2018-08-16T11:26:02.648Z,4.97
2018-08-16T11:28:35.139Z,8.90
2018-08-16T11:31:03.324Z,4.03
2018-08-16T11:33:31.591Z,4.50
2018-08-16T11:36:00.692Z,3.77
2018-08-16T11:38:28.867Z,5.55
2018-08-16T11:41:00.928Z,3.80
2018-08-16T11:43:29.124Z,4.85
2018-08-16T11:45:57.301Z,3.03
2018-08-16T11:48:25.722Z,3.45
2018-08-16T11:50:53.927Z,5.00
2018-08-16T11:53:22.116Z,3.45
2018-08-16T11:55:54.867Z,3.10
2018-08-16T11:58:23.047Z,3.67
2018-08-16T12:00:51.242Z,4.23
2018-08-16T12:03:20.988Z,2.58
2018-08-16T12:05:49.263Z,5.90
2018-08-16T12:08:17.407Z,3.72
2018-08-16T12:10:45.821Z,3.85
2018-08-16T12:13:14.007Z,2.60
2018-08-16T12:15:42.184Z,3.98
2018-08-16T12:18:10.479Z,6.87
2018-08-16T12:20:38.672Z,3.03
2018-08-16T12:23:07.115Z,2.83
2018-08-16T12:25:35.336Z,3.53
2018-08-16T12:28:08.033Z,2.70
2018-08-16T12:30:36.233Z,10.60
2018-08-16T12:33:04.448Z,3.17
2018-08-16T12:35:32.639Z,4.63
2018-08-16T12:38:00.868Z,5.73
2018-08-16T12:40:29.082Z,4.83
2018-08-16T12:43:01.976Z,3.53
2018-08-16T12:45:31.100Z,7.12
2018-08-16T12:47:59.334Z,5.30
2018-08-16T12:50:27.660Z,2.63
2018-08-16T12:52:56.226Z,4.30
2018-08-16T12:55:24.448Z,4.33
2018-08-16T12:57:52.737Z,3.00
2018-08-16T13:00:20.952Z,3.50
2018-08-16T13:02:49.439Z,3.10
2018-08-16T13:05:17.849Z,4.13
2018-08-16T13:07:46.065Z,3.60
2018-08-16T13:10:14.573Z,8.98
2018-08-16T13:12:47.048Z,2.73
2018-08-16T13:15:16.000Z,5.30
2018-08-16T13:17:44.250Z,2.50
2018-08-16T13:20:12.592Z,3.83
2018-08-16T13:22:40.968Z,5.40
2018-08-16T13:25:09.542Z,3.27
2018-08-16T13:27:37.774Z,2.70
2018-08-16T13:30:06.464Z,3.90
2018-08-16T13:32:35.612Z,3.37
2018-08-16T13:35:04.039Z,2.90
2018-08-16T13:37:32.239Z,5.07
2018-08-16T13:40:00.438Z,3.97
2018-08-16T13:42:28.749Z,3.13
2018-08-16T13:44:59.832Z,2.60
2018-08-16T13:47:28.028Z,6.12
2018-08-16T13:49:56.280Z,6.53
2018-08-16T13:52:25.089Z,2.37
2018-08-16T13:54:53.311Z,3.57
2018-08-16T13:57:21.519Z,4.40
2018-08-16T13:59:49.967Z,3.92
2018-08-16T14:02:18.134Z,2.80
2018-08-16T14:04:46.334Z,2.67
2018-08-16T14:07:14.514Z,3.12
2018-08-16T14:09:42.722Z,2.53
2018-08-16T14:12:10.901Z,4.43
2018-08-16T14:14:39.516Z,4.55
2018-08-16T14:17:07.698Z,4.73
2018-08-16T14:19:35.940Z,5.30
2018-08-16T14:22:04.212Z,3.40
2018-08-16T14:24:32.380Z,2.40
2018-08-16T14:27:00.610Z,2.47
2018-08-16T14:29:29.828Z,3.05
2018-08-16T14:31:59.104Z,5.33
2018-08-16T14:34:27.289Z,4.20
2018-08-16T14:36:55.532Z,2.53
2018-08-16T14:39:24.667Z,3.77
2018-08-16T14:41:53.774Z,2.42
2018-08-16T14:44:25.159Z,3.00
2018-08-16T14:46:53.325Z,2.55
2018-08-16T14:49:21.532Z,6.45
2018-08-16T14:51:49.745Z,3.33
2018-08-16T14:54:18.821Z,3.10
2018-08-16T14:56:47.044Z,2.60
2018-08-16T14:59:18.161Z,6.73
2018-08-16T15:01:46.375Z,3.07
2018-08-16T15:04:14.532Z,5.30
2018-08-16T15:06:42.745Z,2.80
2018-08-16T15:09:11.871Z,3.10
2018-08-16T15:11:41.268Z,2.12
2018-08-16T15:14:13.959Z,2.70
2018-08-16T15:16:42.136Z,2.53
2018-08-16T15:19:10.363Z,4.95
2018-08-16T15:21:38.551Z,3.27
2018-08-16T15:24:06.755Z,2.47
2018-08-16T15:26:34.946Z,2.23
2018-08-16T15:29:03.132Z,3.03
2018-08-16T15:31:31.320Z,2.70
2018-08-16T15:33:59.564Z,4.63
2018-08-16T15:36:27.740Z,1.87
2018-08-16T15:38:55.988Z,2.17
2018-08-16T15:41:24.183Z,4.90
2018-08-16T15:43:52.413Z,5.83
2018-08-16T15:46:20.568Z,4.17
2018-08-16T15:48:48.763Z,2.67
2018-08-16T15:51:17.047Z,3.15
2018-08-16T15:53:45.272Z,4.37
2018-08-16T15:56:13.459Z,2.75
2018-08-16T15:58:41.641Z,4.07
2018-08-16T16:01:09.812Z,2.87
2018-08-16T16:03:38.012Z,2.70
2018-08-16T16:06:06.635Z,4.72
2018-08-16T16:08:34.843Z,2.60
2018-08-16T16:11:03.051Z,7.43
2018-08-16T16:13:31.218Z,3.43
2018-08-16T16:16:02.499Z,5.20
2018-08-16T16:18:34.729Z,4.00
2018-08-16T16:21:03.557Z,3.00
2018-08-16T16:23:31.771Z,3.67
2018-08-16T16:26:00.350Z,2.57
2018-08-16T16:28:28.591Z,3.43
2018-08-16T16:30:56.819Z,2.90
2018-08-16T16:33:24.986Z,4.00
2018-08-16T16:35:53.196Z,3.03
2018-08-16T16:38:21.447Z,3.47
2018-08-16T16:40:50.155Z,3.10
2018-08-16T16:43:18.396Z,6.20
2018-08-16T16:45:46.571Z,2.43
2018-08-16T16:48:22.796Z,2.50
2018-08-16T16:50:51.029Z,2.40
2018-08-16T16:53:19.244Z,2.47
2018-08-16T16:55:47.476Z,2.70
2018-08-16T16:58:15.736Z,2.57
2018-08-16T17:00:43.972Z,2.63
2018-08-16T17:03:13.085Z,2.60
2018-08-16T17:05:41.358Z,2.93
2018-08-16T17:08:09.563Z,2.83
2018-08-16T17:10:38.445Z,4.73
2018-08-16T17:13:06.646Z,3.23
2018-08-16T17:15:35.211Z,3.02
2018-08-16T17:18:03.412Z,2.50
2018-08-16T17:20:31.616Z,2.60
2018-08-16T17:22:59.822Z,2.93
2018-08-16T17:25:28.201Z,2.50
2018-08-16T17:27:56.432Z,3.60
2018-08-16T17:30:24.684Z,3.27
2018-08-16T17:32:52.897Z,4.40
2018-08-16T17:35:21.097Z,2.70
2018-08-16T17:37:49.360Z,4.10
2018-08-16T17:40:17.607Z,6.93
2018-08-16T17:42:45.883Z,3.30
2018-08-16T17:45:14.103Z,4.63
2018-08-16T17:47:54.740Z,4.37
2018-08-16T17:50:22.980Z,6.40
2018-08-16T17:52:51.211Z,3.98
2018-08-16T17:55:19.438Z,3.30
2018-08-16T17:57:48.572Z,3.35
2018-08-16T18:00:16.779Z,5.73
2018-08-16T18:02:51.052Z,7.33
2018-08-16T18:05:19.457Z,4.30
2018-08-16T18:07:47.695Z,3.65
2018-08-16T18:10:15.896Z,5.53
2018-08-16T18:12:44.135Z,2.97
2018-08-16T18:15:12.630Z,5.10
2018-08-16T18:17:40.839Z,2.57
2018-08-16T18:20:09.040Z,8.20
2018-08-16T18:22:37.701Z,2.72
2018-08-16T18:25:06.254Z,3.37
2018-08-16T18:27:34.520Z,5.27
2018-08-16T18:30:02.759Z,6.33
2018-08-16T18:32:38.711Z,4.42
2018-08-16T18:35:06.866Z,4.60
2018-08-16T18:37:35.084Z,7.47
2018-08-16T18:40:03.527Z,10.07
2018-08-16T18:42:31.782Z,4.07
2018-08-16T18:44:59.957Z,3.80
2018-08-16T18:47:28.279Z,5.55
2018-08-16T18:49:56.525Z,3.75
2018-08-16T18:52:24.694Z,2.70
2018-08-16T18:54:52.907Z,5.47
2018-08-16T18:57:21.103Z,5.40
2018-08-16T18:59:49.321Z,4.70
2018-08-16T19:02:18.188Z,4.57
2018-08-16T19:04:46.433Z,10.00
2018-08-16T19:07:14.738Z,5.93
2018-08-16T19:09:44.301Z,12.43
2018-08-16T19:12:12.507Z,6.70
2018-08-16T19:14:40.716Z,5.97
2018-08-16T19:17:08.940Z,5.60
2018-08-16T19:19:37.128Z,5.72
2018-08-16T19:22:05.369Z,4.97
2018-08-16T19:24:33.567Z,5.58
2018-08-16T19:27:08.407Z,7.53
2018-08-16T19:29:36.635Z,6.40
2018-08-16T19:32:04.808Z,5.92
2018-08-16T19:34:37.152Z,6.00
2018-08-16T19:37:05.412Z,7.63
2018-08-16T19:39:34.031Z,3.90
2018-08-16T19:42:02.292Z,3.73
2018-08-16T19:44:30.500Z,4.45
2018-08-16T19:46:59.136Z,3.50
2018-08-16T19:49:27.331Z,4.60
2018-08-16T19:51:55.571Z,5.15
2018-08-16T19:54:23.902Z,6.90
2018-08-16T19:56:52.131Z,6.67
2018-08-16T19:59:23.347Z,4.43
2018-08-16T20:01:51.575Z,6.72
2018-08-16T20:04:19.764Z,3.55
2018-08-16T20:11:46.040Z,3.70
2018-08-16T20:14:14.238Z,4.30
2018-08-16T20:16:42.448Z,6.70
2018-08-16T20:19:13.836Z,5.27
2018-08-16T20:21:41.958Z,4.20
2018-08-16T20:24:10.277Z,4.47
2018-08-16T20:26:39.003Z,4.20
2018-08-16T20:29:07.280Z,4.27
2018-08-16T20:31:35.502Z,4.40
2018-08-16T20:34:03.744Z,4.93
2018-08-16T20:36:31.974Z,6.45
2018-08-16T20:39:00.229Z,6.37
2018-08-16T20:41:28.430Z,4.92
2018-08-16T20:43:56.649Z,4.73
2018-08-16T20:46:24.864Z,5.42
2018-08-16T20:48:53.591Z,4.17
2018-08-16T20:51:21.776Z,6.33
2018-08-16T20:53:49.971Z,4.60
2018-08-16T20:56:18.180Z,5.22
2018-08-16T20:58:46.551Z,5.07
2018-08-16T21:01:14.804Z,3.50
2018-08-16T21:03:43.104Z,7.40
2018-08-16T21:06:11.295Z,4.27
2018-08-16T21:08:39.538Z,7.47
2018-08-16T21:11:07.838Z,10.10
2018-08-16T21:13:36.054Z,5.07
2018-08-16T21:16:04.268Z,6.17
2018-08-16T21:18:32.465Z,5.13
2018-08-16T21:21:00.670Z,8.00
2018-08-16T21:23:28.898Z,3.90
2018-08-16T21:25:57.468Z,4.07
2018-08-16T21:28:25.688Z,4.27
2018-08-16T21:30:53.921Z,5.00
2018-08-16T21:33:22.239Z,7.43
2018-08-16T21:35:54.424Z,5.25
2018-08-16T21:40:56.080Z,3.70
2018-08-16T21:43:24.285Z,6.17
2018-08-16T21:45:52.711Z,6.00
2018-08-16T21:48:20.933Z,4.10
2018-08-16T21:50:49.119Z,7.80
2018-08-16T21:53:17.356Z,4.37
2018-08-16T21:55:45.550Z,6.97
2018-08-16T21:58:13.744Z,4.73
2018-08-16T22:00:53.264Z,8.18
2018-08-16T22:03:23.550Z,5.10
2018-08-16T22:06:05.106Z,8.17
2018-08-16T22:08:42.569Z,5.10
2018-08-16T22:11:11.147Z,3.73
2018-08-16T22:13:39.693Z,5.10
2018-08-16T22:16:07.922Z,4.87
2018-08-16T22:18:36.372Z,7.30
2018-08-16T22:21:04.601Z,6.87
2018-08-16T22:23:32.811Z,4.30
2018-08-16T22:26:01.061Z,4.13
2018-08-16T22:28:29.207Z,5.70
2018-08-16T22:30:57.881Z,5.80
2018-08-16T22:33:27.004Z,4.33
2018-08-16T22:35:55.214Z,5.77
2018-08-16T22:38:23.399Z,6.87
2018-08-16T22:40:51.912Z,5.20
2018-08-16T22:43:20.130Z,4.40
2018-08-16T22:45:48.352Z,5.42
2018-08-16T22:48:16.581Z,10.80
2018-08-16T22:50:44.819Z,7.80
2018-08-16T22:53:20.550Z,7.08
2018-08-16T22:55:48.763Z,4.40
2018-08-16T22:58:17.383Z,4.45
2018-08-16T23:00:45.587Z,7.37
2018-08-16T23:03:13.759Z,5.27
2018-08-16T23:05:42.389Z,10.32
2018-08-16T23:08:13.831Z,9.07
2018-08-16T23:10:42.927Z,4.40
2018-08-16T23:13:11.149Z,5.20
2018-08-16T23:15:39.337Z,4.75
2018-08-16T23:18:07.588Z,6.37
2018-08-16T23:20:35.784Z,4.50
2018-08-16T23:23:06.864Z,5.90
2018-08-16T23:25:35.047Z,6.77
2018-08-16T23:28:03.268Z,6.20
2018-08-16T23:30:31.497Z,6.30
2018-08-16T23:32:59.620Z,8.90
2018-08-16T23:35:27.819Z,7.28
2018-08-16T23:37:55.999Z,5.10
2018-08-16T23:40:24.227Z,10.93
2018-08-16T23:42:52.892Z,10.07
2018-08-16T23:45:22.000Z,5.78
2018-08-16T23:48:01.676Z,18.77
2018-08-16T23:50:29.859Z,7.07
2018-08-16T23:53:02.871Z,7.08
2018-08-16T23:55:31.075Z,7.42
2018-08-16T23:57:59.258Z,13.98
